Date,TemperatureHighF,TemperatureAvgF,TemperatureLowF,DewpointHighF,DewpointAvgF,DewpointLowF,HumidityHigh,HumidityAvg,HumidityLow,PressureMaxIn,PressureMinIn,WindSpeedMaxMPH,WindSpeedAvgMPH,GustSpeedMaxMPH,PrecipitationSumIn
2013-8-1,80,75,72,60,54,51,59,49,40,29.97,29.92,7,4,20,0.00
2013-8-4,98,90,80,68,62,55,53,39,28,30.04,29.99,3,1,9,0.00
2013-8-5,97,84,73,70,60,50,58,46,33,30.01,29.93,2,0,9,0.00
2013-8-6,95,84,75,72,63,52,66,50,39,29.99,29.93,3,1,8,0.00
2013-8-7,96,83,74,73,64,52,64,52,36,29.95,29.91,3,0,9,0.00
2013-8-8,97,84,75,72,64,54,63,50,38,29.95,29.90,3,0,8,0.00
2013-8-9,93,81,68,72,62,56,87,55,35,29.92,29.80,8,2,22,0.33
2013-8-10,80,76,73,65,60,57,65,59,53,29.90,29.83,6,3,18,0.00
2013-8-11,86,75,66,66,61,56,78,62,47,29.95,29.88,6,2,14,0.00
2013-8-12,88,77,68,70,64,60,82,67,50,29.99,29.94,3,0,10,0.00
2013-8-13,88,75,66,70,64,60,87,70,47,29.99,29.94,3,1,8,0.00
2013-8-14,87,74,67,70,64,56,89,71,51,29.96,29.89,7,1,16,0.00
2013-8-15,84,76,70,64,62,57,73,61,50,30.01,29.93,10,5,31,0.00
2013-8-16,89,77,68,64,60,56,74,57,34,30.03,29.97,8,2,15,0.00
2013-8-17,90,77,67,67,62,57,78,60,41,30.02,29.97,3,1,9,0.00
2013-8-18,90,79,69,66,59,53,62,52,34,30.05,30.00,2,1,10,0.00
2013-8-19,86,74,68,64,59,49,73,59,45,29.98,29.95,1,0,5,0.00
2013-8-20,84,72,66,68,61,48,90,70,46,29.98,29.89,12,2,25,0.00
2013-8-21,80,73,64,64,59,55,77,64,52,29.99,29.91,10,6,25,0.00
2013-8-22,88,75,68,63,60,55,73,59,39,29.98,29.92,9,2,26,0.00
2013-8-23,87,75,68,67,62,56,78,65,45,29.99,29.94,3,1,10,0.00
2013-8-24,85,74,66,67,62,55,91,69,43,29.99,29.91,2,1,12,0.00
2013-8-25,76,68,62,67,63,59,94,84,63,29.93,29.84,3,0,15,0.65
2013-8-26,83,74,66,67,64,61,94,73,50,29.90,29.83,3,0,10,0.00
2013-8-27,80,70,65,68,64,61,93,82,64,29.88,29.83,3,0,8,0.23
2013-8-30,77,72,65,60,57,53,70,60,53,30.06,29.98,9,6,24,0.35
2013-8-31,80,71,65,57,52,46,63,52,42,30.06,30.00,9,5,21,0.00